createdAt,value
2023-11-20T00:00:47.310Z,99.99
2023-11-20T00:01:47.306Z,99.99
2023-11-20T00:02:47.306Z,99.99
2023-11-20T00:03:47.305Z,99.98
2023-11-20T00:04:47.285Z,99.87
2023-11-20T00:05:47.238Z,99.77
2023-11-20T00:06:47.237Z,99.98
2023-11-20T00:07:47.221Z,99.87
2023-11-20T00:08:47.254Z,99.98
2023-11-20T00:09:47.238Z,99.77
2023-11-20T00:10:47.199Z,99.66
2023-11-20T00:11:47.176Z,99.56
2023-11-20T00:12:47.214Z,99.46
2023-11-20T00:13:47.160Z,99.36
2023-11-20T00:14:47.146Z,99.36
2023-11-20T00:15:47.154Z,99.46
2023-11-20T00:16:47.150Z,99.15
2023-11-20T00:17:47.139Z,99.05
2023-11-20T00:18:47.183Z,98.95
2023-11-20T00:19:47.095Z,99.36
2023-11-20T00:20:47.078Z,99.56
2023-11-20T00:21:47.122Z,99.36
2023-11-20T00:22:47.056Z,99.11
2023-11-20T00:23:47.053Z,98.65
2023-11-20T00:24:47.048Z,98.65
2023-11-20T00:25:47.029Z,99.05
2023-11-20T00:26:47.039Z,98.85
2023-11-20T00:27:47.067Z,98.44
2023-11-20T00:28:46.995Z,98.54
2023-11-20T00:29:46.992Z,98.95
2023-11-20T00:30:46.987Z,98.44
2023-11-20T00:31:47.050Z,98.39
2023-11-20T00:32:46.982Z,98.33
2023-11-20T00:33:46.967Z,98.44
2023-11-20T00:34:46.936Z,98.65
2023-11-20T00:35:46.931Z,98.65
2023-11-20T00:36:47.344Z,98.74
2023-11-20T00:37:46.922Z,99.05
2023-11-20T00:38:46.893Z,98.65
2023-11-20T00:39:46.937Z,98.90
2023-11-20T00:40:46.870Z,98.49
2023-11-20T00:41:46.897Z,98.24
2023-11-20T00:42:46.895Z,98.49
2023-11-20T00:43:46.890Z,98.08
2023-11-20T00:44:46.829Z,97.98
2023-11-20T00:45:46.905Z,97.98
2023-11-20T00:46:46.825Z,97.67
2023-11-20T00:47:46.845Z,98.19
2023-11-20T00:48:46.841Z,98.08
2023-11-20T00:49:46.790Z,97.88
2023-11-20T00:50:46.769Z,97.67
2023-11-20T00:51:46.803Z,97.98
2023-11-20T00:52:46.770Z,97.78
2023-11-20T00:53:46.746Z,97.88
2023-11-20T00:54:46.767Z,97.37
2023-11-20T00:55:46.722Z,97.47
2023-11-20T00:56:46.715Z,97.47
2023-11-20T00:57:46.723Z,97.16
2023-11-20T00:58:46.721Z,97.06
2023-11-20T00:59:46.683Z,97.16
2023-11-20T01:00:46.690Z,97.27
2023-11-20T01:01:46.682Z,97.27
2023-11-20T01:02:46.807Z,97.16
2023-11-20T01:03:46.731Z,97.06
2023-11-20T01:04:46.624Z,96.96
2023-11-20T01:05:46.624Z,97.16
2023-11-20T01:06:46.638Z,96.96
2023-11-20T01:07:46.612Z,96.86
2023-11-20T01:08:46.601Z,96.86
2023-11-20T01:09:46.634Z,96.75
2023-11-20T01:10:46.615Z,96.66
2023-11-20T01:11:46.560Z,96.66
2023-11-20T01:12:46.581Z,96.41
2023-11-20T01:13:46.547Z,96.51
2023-11-20T01:14:46.526Z,96.00
2023-11-20T01:15:46.632Z,96.10
2023-11-20T01:16:46.506Z,96.30
2023-11-20T01:17:46.517Z,96.20
2023-11-20T01:18:46.510Z,96.20
2023-11-20T01:19:46.494Z,96.30
2023-11-20T01:20:46.469Z,96.00
2023-11-20T01:21:46.552Z,95.89
2023-11-20T01:22:46.456Z,95.69
2023-11-20T01:23:46.449Z,95.59
2023-11-20T01:24:46.430Z,95.79
2023-11-20T01:25:46.408Z,96.00
2023-11-20T01:26:46.426Z,95.79
2023-11-20T01:27:46.403Z,95.18
2023-11-20T01:28:46.396Z,95.18
2023-11-20T01:29:46.380Z,95.89
2023-11-20T01:30:46.379Z,95.69
2023-11-20T01:31:46.375Z,95.28
2023-11-20T01:32:46.348Z,95.38
2023-11-20T01:33:46.355Z,95.38
2023-11-20T01:34:46.340Z,95.59
2023-11-20T01:35:46.358Z,95.13
2023-11-20T01:36:46.341Z,95.18
2023-11-20T01:37:46.299Z,94.97
2023-11-20T01:38:46.323Z,95.18
2023-11-20T01:39:46.297Z,95.38
2023-11-20T01:40:46.260Z,95.18
2023-11-20T01:41:46.240Z,95.23
2023-11-20T01:42:46.255Z,95.18
2023-11-20T01:43:46.233Z,95.07
2023-11-20T01:44:46.218Z,95.28
2023-11-20T01:45:46.236Z,95.48
2023-11-20T01:46:46.255Z,95.18
2023-11-20T01:47:46.228Z,94.93
2023-11-20T01:48:46.504Z,94.73
2023-11-20T01:49:46.163Z,94.73
2023-11-20T01:50:46.156Z,94.93
2023-11-20T01:51:46.204Z,94.82
2023-11-20T01:52:46.307Z,94.93
2023-11-20T01:53:46.837Z,94.93
2023-11-20T01:54:46.227Z,94.82
2023-11-20T01:55:46.123Z,95.03
2023-11-20T01:56:46.093Z,94.73
2023-11-20T01:57:46.230Z,94.73
2023-11-20T01:58:46.111Z,95.03
2023-11-20T01:59:46.059Z,95.03
2023-11-20T02:00:46.076Z,95.03
2023-11-20T02:01:46.075Z,95.03
2023-11-20T02:02:46.091Z,95.34
2023-11-20T02:03:46.119Z,94.93
2023-11-20T02:04:46.024Z,94.21
2023-11-20T02:05:46.007Z,94.11
2023-11-20T02:06:45.978Z,94.11
2023-11-20T02:07:45.983Z,94.32
2023-11-20T02:08:45.962Z,94.42
2023-11-20T02:09:46.380Z,94.82
2023-11-20T02:10:45.950Z,94.62
2023-11-20T02:11:45.970Z,94.52
2023-11-20T02:12:45.974Z,94.42
2023-11-20T02:13:45.937Z,94.42
2023-11-20T02:14:46.066Z,94.62
2023-11-20T02:15:45.994Z,94.52
2023-11-20T02:16:45.955Z,94.73
2023-11-20T02:17:45.891Z,94.32
2023-11-20T02:18:45.903Z,94.52
2023-11-20T02:19:45.857Z,94.32
2023-11-20T02:20:45.868Z,94.21
2023-11-20T02:21:45.926Z,94.42
2023-11-20T02:22:45.825Z,94.42
2023-11-20T02:23:45.829Z,94.21
2023-11-20T02:24:45.834Z,94.11
2023-11-20T02:25:45.817Z,94.21
2023-11-20T02:26:45.780Z,94.21
2023-11-20T02:27:45.786Z,94.11
2023-11-20T02:28:45.764Z,94.07
2023-11-20T02:29:45.757Z,94.07
2023-11-20T02:30:45.792Z,93.76
2023-11-20T02:31:45.754Z,93.60
2023-11-20T02:32:45.785Z,93.45
2023-11-20T02:33:45.750Z,93.50
2023-11-20T02:34:45.702Z,93.60
2023-11-20T02:35:45.693Z,93.55
2023-11-20T02:36:45.742Z,93.45
2023-11-20T02:37:45.672Z,93.66
2023-11-20T02:38:45.652Z,93.25
2023-11-20T02:39:45.667Z,93.15
2023-11-20T02:40:45.636Z,93.25
2023-11-20T02:41:45.626Z,93.66
2023-11-20T02:42:45.626Z,93.25
2023-11-20T02:43:45.609Z,93.05
2023-11-20T02:44:45.593Z,93.25
2023-11-20T02:45:45.609Z,93.45
2023-11-20T02:46:45.596Z,92.84
2023-11-20T02:47:45.623Z,92.54
2023-11-20T02:48:45.582Z,92.74
2023-11-20T02:49:45.548Z,93.05
2023-11-20T02:50:45.528Z,92.84
2023-11-20T02:51:45.545Z,92.64
2023-11-20T02:52:45.540Z,92.43
2023-11-20T02:53:45.525Z,92.43
2023-11-20T02:54:45.816Z,92.94
2023-11-20T02:55:45.489Z,92.84
2023-11-20T02:56:45.479Z,92.64
2023-11-20T02:57:45.526Z,92.84
2023-11-20T02:58:45.474Z,92.84
2023-11-20T02:59:45.448Z,93.05
2023-11-20T03:00:45.483Z,92.74
2023-11-20T03:01:45.455Z,92.33
2023-11-20T03:02:45.498Z,92.13
2023-11-20T03:03:45.539Z,92.13
2023-11-20T03:04:45.415Z,92.64
2023-11-20T03:05:45.390Z,92.23
2023-11-20T03:06:45.397Z,91.72
2023-11-20T03:07:45.363Z,92.13
2023-11-20T03:08:45.349Z,91.92
2023-11-20T03:09:45.370Z,92.43
2023-11-20T03:10:45.332Z,91.82
2023-11-20T03:11:45.325Z,92.02
2023-11-20T03:12:45.324Z,92.23
2023-11-20T03:13:45.332Z,92.43
2023-11-20T03:14:45.293Z,92.64
2023-11-20T03:15:45.349Z,92.13
2023-11-20T03:16:45.515Z,92.23
2023-11-20T03:17:45.307Z,92.23
2023-11-20T03:18:45.278Z,91.92
2023-11-20T03:19:45.238Z,92.13
2023-11-20T03:20:45.224Z,91.92
2023-11-20T03:21:45.369Z,91.92
2023-11-20T03:22:45.202Z,92.23
2023-11-20T03:23:45.223Z,91.92
2023-11-20T03:24:45.234Z,91.31
2023-11-20T03:25:45.177Z,91.31
2023-11-20T03:26:45.163Z,91.37
2023-11-20T03:27:45.179Z,91.06
2023-11-20T03:28:45.451Z,91.20
2023-11-20T03:29:45.150Z,91.47
2023-11-20T03:30:45.146Z,91.37
2023-11-20T03:31:45.136Z,91.41
2023-11-20T03:32:45.123Z,90.70
2023-11-20T03:33:45.116Z,91.11
2023-11-20T03:34:45.082Z,91.00
2023-11-20T03:35:45.081Z,91.16
2023-11-20T03:36:45.090Z,90.35
2023-11-20T03:37:45.057Z,90.49
2023-11-20T03:38:45.069Z,91.31
2023-11-20T03:39:45.070Z,90.90
2023-11-20T03:40:45.031Z,91.31
2023-11-20T03:41:45.018Z,90.75
2023-11-20T03:42:45.042Z,90.39
2023-11-20T03:43:44.991Z,90.80
2023-11-20T03:44:45.005Z,91.11
2023-11-20T03:45:45.019Z,90.86
2023-11-20T03:46:45.004Z,91.00
2023-11-20T03:47:44.988Z,91.20
2023-11-20T03:48:44.999Z,91.31
2023-11-20T03:49:44.938Z,91.20
2023-11-20T03:50:44.915Z,91.52
2023-11-20T03:51:44.933Z,91.72
2023-11-20T03:52:44.894Z,91.61
2023-11-20T03:53:44.936Z,92.02
2023-11-20T03:54:44.916Z,91.82
2023-11-20T03:55:44.923Z,91.52
2023-11-20T03:56:44.860Z,91.82
2023-11-20T03:57:44.871Z,91.92
2023-11-20T03:58:44.833Z,92.23
2023-11-20T03:59:44.867Z,92.02
2023-11-20T04:00:44.824Z,91.92
2023-11-20T04:01:44.817Z,92.02
2023-11-20T04:02:44.798Z,92.13
2023-11-20T04:03:44.939Z,92.54
2023-11-20T04:04:44.840Z,92.64
2023-11-20T04:05:44.769Z,92.43
2023-11-20T04:06:44.800Z,92.64
2023-11-20T04:07:44.745Z,92.84
2023-11-20T04:08:44.784Z,92.94
2023-11-20T04:09:44.798Z,92.94
2023-11-20T04:10:44.710Z,93.05
2023-11-20T04:11:44.704Z,92.94
2023-11-20T04:12:44.700Z,93.15
2023-11-20T04:13:44.686Z,92.64
2023-11-20T04:14:44.790Z,92.94
2023-11-20T04:15:44.700Z,93.05
2023-11-20T04:16:44.680Z,93.15
2023-11-20T04:17:44.672Z,93.05
2023-11-20T04:18:44.692Z,93.05
2023-11-20T04:19:44.637Z,92.84
2023-11-20T04:20:44.610Z,93.05
2023-11-20T04:21:44.628Z,93.15
2023-11-20T04:22:44.587Z,93.45
2023-11-20T04:23:44.609Z,93.05
2023-11-20T04:24:44.590Z,93.25
2023-11-20T04:25:44.562Z,92.54
2023-11-20T04:26:44.543Z,92.64
2023-11-20T04:27:44.568Z,92.90
2023-11-20T04:28:44.565Z,92.74
2023-11-20T04:29:44.526Z,93.25
2023-11-20T04:30:44.587Z,93.76
2023-11-20T04:31:44.555Z,93.96
2023-11-20T04:32:44.493Z,94.07
2023-11-20T04:33:44.510Z,94.82
2023-11-20T04:34:44.490Z,95.44
2023-11-20T04:35:44.462Z,95.75
2023-11-20T04:36:44.457Z,96.05
2023-11-20T04:37:44.437Z,96.05
2023-11-20T04:38:44.456Z,95.80
2023-11-20T04:39:44.441Z,95.85
2023-11-20T04:40:44.402Z,95.54
2023-11-20T04:41:44.397Z,95.85
2023-11-20T04:42:44.417Z,95.75
2023-11-20T04:43:44.406Z,95.34
2023-11-20T04:44:44.368Z,95.44
2023-11-20T04:45:44.390Z,95.34
2023-11-20T04:46:44.368Z,95.54
2023-11-20T04:47:44.354Z,95.60
2023-11-20T04:48:44.393Z,95.60
2023-11-20T04:49:44.317Z,95.50
2023-11-20T04:50:44.307Z,95.50
2023-11-20T04:51:44.303Z,95.39
2023-11-20T04:52:44.283Z,95.50
2023-11-20T04:53:44.301Z,95.29
2023-11-20T04:54:44.270Z,95.50
2023-11-20T04:55:44.268Z,96.05
2023-11-20T04:56:44.244Z,96.15
2023-11-20T04:57:44.304Z,96.01
2023-11-20T04:58:44.378Z,95.90
2023-11-20T04:59:44.229Z,95.39
2023-11-20T05:00:44.264Z,95.64
2023-11-20T05:01:44.272Z,95.75
2023-11-20T05:02:44.208Z,95.95
2023-11-20T05:03:46.457Z,95.64
2023-11-20T05:04:44.186Z,95.64
2023-11-20T05:05:44.152Z,95.64
2023-11-20T05:06:44.165Z,95.85
2023-11-20T05:07:44.137Z,95.75
2023-11-20T05:08:44.116Z,95.23
2023-11-20T05:09:44.169Z,95.03
2023-11-20T05:10:44.096Z,95.34
2023-11-20T05:11:44.089Z,94.98
2023-11-20T05:12:44.123Z,94.58
2023-11-20T05:13:44.107Z,94.62
2023-11-20T05:14:44.048Z,94.17
2023-11-20T05:15:44.085Z,93.66
2023-11-20T05:16:44.051Z,94.07
2023-11-20T05:17:44.045Z,93.66
2023-11-20T05:18:44.079Z,93.80
2023-11-20T05:19:46.048Z,92.58
2023-11-20T05:20:44.003Z,91.66
2023-11-20T05:21:44.024Z,91.96
2023-11-20T05:22:43.983Z,92.13
2023-11-20T05:23:43.991Z,92.58
2023-11-20T05:24:43.971Z,92.02
2023-11-20T05:25:43.945Z,91.41
2023-11-20T05:26:43.929Z,91.00
2023-11-20T05:27:45.675Z,90.39
2023-11-20T05:28:44.465Z,90.29
2023-11-20T05:29:43.905Z,88.65
2023-11-20T05:30:44.023Z,89.06
2023-11-20T05:31:44.020Z,87.84
2023-11-20T05:32:43.894Z,88.14
2023-11-20T05:33:43.926Z,87.73
2023-11-20T05:34:43.847Z,87.94
2023-11-20T05:35:43.859Z,87.73
2023-11-20T05:36:43.849Z,87.63
2023-11-20T05:37:43.832Z,87.53
2023-11-20T05:38:43.845Z,86.91
2023-11-20T05:39:43.822Z,87.84
2023-11-20T05:40:43.791Z,88.24
2023-11-20T05:41:43.782Z,87.32
2023-11-20T05:42:43.823Z,87.02
2023-11-20T05:43:43.765Z,87.53
2023-11-20T05:44:43.805Z,87.18
2023-11-20T05:45:43.753Z,86.88
2023-11-20T05:46:43.743Z,87.38
2023-11-20T05:47:43.744Z,86.36
2023-11-20T05:48:43.752Z,86.77
2023-11-20T05:49:43.704Z,86.36
2023-11-20T05:50:43.696Z,86.67
2023-11-20T05:51:43.843Z,86.88
2023-11-20T05:52:43.666Z,87.08
2023-11-20T05:53:44.209Z,86.57
2023-11-20T05:54:43.684Z,86.26
2023-11-20T05:55:43.638Z,86.98
2023-11-20T05:56:43.619Z,86.36
2023-11-20T05:57:43.627Z,85.75
2023-11-20T05:58:43.630Z,86.47
2023-11-20T05:59:43.606Z,86.98
2023-11-20T06:00:43.645Z,86.16
2023-11-20T06:01:43.736Z,86.43
2023-11-20T06:02:43.583Z,85.24
2023-11-20T06:03:43.624Z,85.86
2023-11-20T06:04:43.603Z,85.75
2023-11-20T06:05:43.538Z,86.06
2023-11-20T06:06:43.562Z,86.67
2023-11-20T06:07:43.512Z,86.47
2023-11-20T06:08:43.496Z,86.16
2023-11-20T06:09:43.564Z,85.65
2023-11-20T06:10:43.482Z,85.55
2023-11-20T06:11:43.477Z,85.86
2023-11-20T06:12:43.477Z,86.16
2023-11-20T06:13:43.475Z,85.75
2023-11-20T06:14:43.395Z,85.65
2023-11-20T06:15:43.457Z,85.75
2023-11-20T06:16:43.408Z,85.14
2023-11-20T06:17:43.385Z,85.35
2023-11-20T06:18:43.358Z,85.45
2023-11-20T06:19:43.336Z,85.65
2023-11-20T06:20:43.372Z,85.55
2023-11-20T06:21:43.330Z,84.94
2023-11-20T06:22:43.305Z,85.35
2023-11-20T06:23:43.293Z,85.24
2023-11-20T06:24:43.329Z,85.65
2023-11-20T06:25:43.274Z,85.14
2023-11-20T06:26:43.296Z,85.04
2023-11-20T06:27:43.283Z,84.90
2023-11-20T06:28:43.252Z,85.96
2023-11-20T06:29:44.857Z,85.86
2023-11-20T06:30:43.248Z,86.06
2023-11-20T06:31:43.346Z,85.51
2023-11-20T06:32:43.244Z,85.65
2023-11-20T06:33:43.296Z,85.04
2023-11-20T06:34:43.178Z,85.14
2023-11-20T06:35:43.168Z,85.45
2023-11-20T06:36:43.200Z,85.86
2023-11-20T06:37:43.167Z,85.24
2023-11-20T06:38:43.148Z,85.04
2023-11-20T06:39:43.155Z,85.65
2023-11-20T06:40:43.169Z,85.14
2023-11-20T06:41:43.105Z,85.24
2023-11-20T06:42:43.156Z,84.74
2023-11-20T06:43:43.086Z,85.55
2023-11-20T06:44:43.097Z,84.74
2023-11-20T06:45:43.085Z,84.83
2023-11-20T06:46:43.100Z,85.55
2023-11-20T06:47:43.093Z,85.75
2023-11-20T06:48:43.050Z,85.96
2023-11-20T06:49:43.026Z,86.26
2023-11-20T06:50:43.018Z,85.55
2023-11-20T06:51:43.030Z,85.86
2023-11-20T06:52:43.038Z,85.79
2023-11-20T06:53:42.981Z,86.16
2023-11-20T06:54:42.988Z,85.75
2023-11-20T06:55:42.962Z,86.20
2023-11-20T06:56:42.976Z,86.00
2023-11-20T06:57:42.979Z,86.20
2023-11-20T06:58:42.960Z,85.79
2023-11-20T06:59:42.925Z,85.89
2023-11-20T07:00:42.936Z,85.89
2023-11-20T07:01:42.900Z,86.00
2023-11-20T07:02:42.944Z,85.18
2023-11-20T07:03:43.445Z,85.69
2023-11-20T07:04:42.925Z,85.59
2023-11-20T07:05:42.938Z,85.38
2023-11-20T07:06:42.863Z,85.49
2023-11-20T07:07:42.840Z,85.69
2023-11-20T07:08:42.853Z,85.49
2023-11-20T07:09:42.849Z,85.18
2023-11-20T07:10:42.817Z,85.69
2023-11-20T07:11:42.800Z,85.49
2023-11-20T07:12:42.815Z,85.69
2023-11-20T07:13:42.810Z,85.49
2023-11-20T07:14:42.775Z,85.38
2023-11-20T07:15:42.846Z,85.38
2023-11-20T07:16:42.912Z,85.28
2023-11-20T07:17:42.770Z,85.08
2023-11-20T07:18:42.743Z,84.88
2023-11-20T07:19:42.737Z,85.49
2023-11-20T07:20:42.712Z,85.38
2023-11-20T07:21:42.699Z,85.18
2023-11-20T07:22:42.692Z,85.79
2023-11-20T07:23:42.698Z,85.69
2023-11-20T07:24:42.687Z,85.49
2023-11-20T07:25:42.655Z,85.49
2023-11-20T07:26:42.652Z,85.59
2023-11-20T07:27:42.658Z,85.18
2023-11-20T07:28:43.132Z,84.98
2023-11-20T07:29:42.610Z,84.88
2023-11-20T07:30:42.682Z,85.38
2023-11-20T07:31:42.704Z,85.59
2023-11-20T07:32:42.616Z,85.08
2023-11-20T07:33:42.703Z,85.08
2023-11-20T07:34:42.570Z,85.38
2023-11-20T07:35:42.556Z,85.14
2023-11-20T07:36:42.577Z,84.53
2023-11-20T07:37:42.533Z,85.04
2023-11-20T07:38:42.547Z,84.94
2023-11-20T07:39:42.529Z,85.35
2023-11-20T07:40:42.507Z,84.88
2023-11-20T07:41:42.484Z,84.98
2023-11-20T07:42:42.540Z,85.04
2023-11-20T07:43:42.603Z,84.88
2023-11-20T07:44:42.461Z,85.28
2023-11-20T07:45:42.532Z,85.14
2023-11-20T07:46:42.550Z,85.14
2023-11-20T07:47:42.547Z,85.18
2023-11-20T07:48:42.595Z,85.69
2023-11-20T07:49:42.412Z,85.38
2023-11-20T07:50:42.402Z,84.47
2023-11-20T07:51:42.399Z,85.18
2023-11-20T07:52:42.377Z,85.28
2023-11-20T07:53:42.382Z,85.28
2023-11-20T07:54:42.429Z,85.49
2023-11-20T07:55:42.345Z,85.79
2023-11-20T07:56:42.340Z,86.00
2023-11-20T07:57:42.416Z,86.20
2023-11-20T07:58:42.343Z,85.28
2023-11-20T07:59:42.297Z,85.59
2023-11-20T08:00:42.362Z,85.59
2023-11-20T08:01:44.779Z,86.00
2023-11-20T08:02:42.533Z,85.59
2023-11-20T08:03:42.309Z,85.79
2023-11-20T08:04:42.410Z,85.69
2023-11-20T08:05:48.674Z,85.69
2023-11-20T08:06:42.450Z,85.89
2023-11-20T08:07:42.265Z,85.89
2023-11-20T08:08:42.224Z,86.20
2023-11-20T08:09:42.314Z,86.61
2023-11-20T08:10:42.207Z,86.71
2023-11-20T08:11:42.186Z,86.85
2023-11-20T08:12:42.338Z,87.26
2023-11-20T08:13:42.224Z,87.37
2023-11-20T08:14:42.246Z,87.26
2023-11-20T08:15:42.337Z,87.47
2023-11-20T08:16:42.189Z,87.37
2023-11-20T08:17:42.183Z,87.47
2023-11-20T08:18:42.153Z,87.98
2023-11-20T08:19:42.099Z,87.77
2023-11-20T08:20:42.810Z,87.98
2023-11-20T08:21:42.144Z,88.39
2023-11-20T08:22:42.076Z,88.79
2023-11-20T08:23:42.109Z,88.70
2023-11-20T08:24:42.085Z,88.70
2023-11-20T08:25:42.037Z,88.39
2023-11-20T08:26:42.053Z,88.45
2023-11-20T08:27:44.526Z,88.24
2023-11-20T08:28:42.009Z,88.55
2023-11-20T08:29:42.000Z,88.35
2023-11-20T08:30:42.548Z,88.85
2023-11-20T08:31:42.023Z,88.85
2023-11-20T08:32:41.997Z,89.17
2023-11-20T08:33:42.027Z,89.02
2023-11-20T08:34:42.030Z,89.23
2023-11-20T08:35:41.948Z,89.23
2023-11-20T08:36:41.940Z,89.43
2023-11-20T08:37:41.950Z,90.19
2023-11-20T08:38:41.913Z,90.29
2023-11-20T08:39:41.970Z,90.39
2023-11-20T08:40:41.886Z,91.00
2023-11-20T08:41:41.873Z,90.66
2023-11-20T08:42:41.919Z,90.45
2023-11-20T08:43:41.884Z,90.66
2023-11-20T08:44:41.880Z,90.35
2023-11-20T08:45:41.869Z,90.45
2023-11-20T08:46:41.886Z,90.25
2023-11-20T08:47:41.942Z,90.45
2023-11-20T08:48:41.904Z,90.55
2023-11-20T08:49:41.797Z,90.96
2023-11-20T08:50:41.791Z,90.96
2023-11-20T08:51:48.929Z,90.96
2023-11-20T08:52:41.811Z,90.55
2023-11-20T08:53:41.773Z,91.00
2023-11-20T08:54:41.837Z,91.41
2023-11-20T08:55:41.728Z,91.20
2023-11-20T08:56:41.720Z,91.41
2023-11-20T08:57:41.728Z,91.52
2023-11-20T08:58:41.736Z,91.61
2023-11-20T08:59:41.690Z,91.82
2023-11-20T09:00:41.732Z,91.41
2023-11-20T09:01:41.711Z,91.61
2023-11-20T09:02:41.673Z,91.52
2023-11-20T09:03:41.683Z,91.31
2023-11-20T09:04:41.697Z,91.11
2023-11-20T09:05:41.627Z,91.11
2023-11-20T09:06:41.801Z,91.06
2023-11-20T09:07:41.620Z,91.06
2023-11-20T09:08:41.604Z,90.45
2023-11-20T09:09:41.605Z,90.55
2023-11-20T09:10:41.584Z,90.70
2023-11-20T09:11:41.567Z,90.35
2023-11-20T09:12:41.577Z,90.29
2023-11-20T09:13:41.542Z,90.29
2023-11-20T09:14:41.561Z,90.08
2023-11-20T09:15:41.533Z,90.14
2023-11-20T09:16:41.583Z,89.84
2023-11-20T09:17:41.523Z,89.23
2023-11-20T09:18:41.501Z,88.31
2023-11-20T09:19:41.488Z,88.41
2023-11-20T09:20:41.500Z,88.51
2023-11-20T09:21:41.464Z,88.41
2023-11-20T09:22:41.456Z,88.17
2023-11-20T09:23:41.443Z,86.57
2023-11-20T09:24:46.907Z,87.45
2023-11-20T09:25:41.447Z,86.16
2023-11-20T09:26:41.436Z,86.06
2023-11-20T09:27:41.399Z,85.96
2023-11-20T09:28:41.480Z,85.71
2023-11-20T09:29:41.401Z,85.51
2023-11-20T09:30:41.378Z,85.00
2023-11-20T09:31:41.395Z,85.21
2023-11-20T09:32:41.434Z,84.80
2023-11-20T09:33:41.337Z,84.69
2023-11-20T09:34:41.339Z,84.80
2023-11-20T09:35:41.320Z,84.18
2023-11-20T09:36:41.344Z,84.69
2023-11-20T09:37:41.302Z,84.69
2023-11-20T09:38:41.303Z,84.49
2023-11-20T09:39:41.277Z,85.10
2023-11-20T09:40:41.275Z,84.39
2023-11-20T09:41:41.271Z,83.67
2023-11-20T09:42:41.328Z,83.67
2023-11-20T09:43:41.242Z,83.26
2023-11-20T09:44:41.247Z,83.87
2023-11-20T09:45:49.777Z,83.78
2023-11-20T09:46:41.318Z,82.86
2023-11-20T09:47:41.262Z,82.45
2023-11-20T09:48:41.216Z,82.86
2023-11-20T09:49:41.179Z,81.94
2023-11-20T09:50:41.178Z,82.45
2023-11-20T09:51:41.160Z,82.14
2023-11-20T09:52:41.156Z,81.39
2023-11-20T09:53:41.160Z,81.70
2023-11-20T09:54:41.136Z,82.51
2023-11-20T09:55:41.119Z,81.39
2023-11-20T09:56:41.124Z,81.70
2023-11-20T09:57:41.103Z,81.39
2023-11-20T09:58:41.103Z,81.18
2023-11-20T09:59:41.092Z,81.90
2023-11-20T10:00:41.073Z,81.18
2023-11-20T10:01:41.109Z,81.09
2023-11-20T10:02:41.090Z,80.57
2023-11-20T10:03:41.356Z,80.84
2023-11-20T10:04:41.127Z,80.43
2023-11-20T10:05:41.019Z,80.84
2023-11-20T10:06:41.013Z,80.33
2023-11-20T10:07:41.004Z,80.33
2023-11-20T10:08:40.993Z,79.72
2023-11-20T10:09:40.997Z,79.82
2023-11-20T10:10:40.970Z,79.72
2023-11-20T10:11:40.954Z,80.02
2023-11-20T10:12:40.964Z,79.52
2023-11-20T10:13:41.016Z,79.72
2023-11-20T10:14:40.928Z,79.38
2023-11-20T10:15:40.946Z,78.50
2023-11-20T10:16:41.036Z,79.17
2023-11-20T10:17:40.944Z,78.97
2023-11-20T10:18:40.904Z,78.46
2023-11-20T10:19:40.880Z,77.64
2023-11-20T10:20:40.886Z,78.05
2023-11-20T10:21:40.856Z,77.85
2023-11-20T10:22:40.848Z,78.05
2023-11-20T10:23:40.848Z,78.36
2023-11-20T10:24:40.832Z,77.64
2023-11-20T10:25:40.831Z,77.95
2023-11-20T10:26:40.830Z,78.05
2023-11-20T10:27:40.793Z,77.37
2023-11-20T10:28:40.852Z,78.50
2023-11-20T10:29:40.775Z,77.98
2023-11-20T10:30:40.810Z,79.52
2023-11-20T10:31:40.845Z,78.46
2023-11-20T10:32:40.790Z,77.44
2023-11-20T10:33:40.746Z,77.55
2023-11-20T10:34:40.723Z,77.58
2023-11-20T10:35:40.731Z,77.58
2023-11-20T10:36:40.729Z,77.27
2023-11-20T10:37:40.695Z,77.37
2023-11-20T10:38:40.682Z,77.17
2023-11-20T10:39:40.677Z,76.76
2023-11-20T10:40:40.668Z,77.48
2023-11-20T10:41:40.708Z,77.55
2023-11-20T10:42:40.653Z,76.53
2023-11-20T10:43:40.633Z,76.32
2023-11-20T10:44:40.621Z,76.42
2023-11-20T10:45:40.619Z,75.71
2023-11-20T10:46:40.948Z,76.01
2023-11-20T10:47:40.660Z,75.60
2023-11-20T10:48:40.815Z,76.01
2023-11-20T10:49:43.588Z,76.42
2023-11-20T10:50:40.564Z,76.12
2023-11-20T10:51:40.551Z,75.88
2023-11-20T10:52:41.226Z,75.20
2023-11-20T10:53:40.656Z,75.67
2023-11-20T10:54:40.533Z,76.28
2023-11-20T10:55:40.516Z,74.99
2023-11-20T10:56:40.495Z,74.90
2023-11-20T10:57:40.521Z,75.10
2023-11-20T10:58:40.537Z,75.95
2023-11-20T10:59:40.483Z,76.22
2023-11-20T11:00:40.496Z,76.22
2023-11-20T11:01:40.625Z,75.20
2023-11-20T11:02:40.515Z,75.71
2023-11-20T11:03:40.501Z,75.71
2023-11-20T11:04:40.484Z,74.69
2023-11-20T11:05:40.420Z,74.65
2023-11-20T11:06:40.400Z,74.65
2023-11-20T11:07:40.421Z,74.65
2023-11-20T11:08:40.383Z,74.52
2023-11-20T11:09:40.373Z,73.60
2023-11-20T11:10:40.359Z,74.62
2023-11-20T11:11:40.358Z,72.65
2023-11-20T11:12:40.368Z,73.36
2023-11-20T11:13:40.344Z,73.57
2023-11-20T11:14:40.323Z,72.55
2023-11-20T11:15:40.311Z,71.80
2023-11-20T11:16:40.302Z,72.82
2023-11-20T11:17:40.338Z,71.70
2023-11-20T11:18:40.337Z,72.62
2023-11-20T11:19:40.324Z,69.60
2023-11-20T11:20:40.274Z,70.82
2023-11-20T11:21:40.268Z,69.67
2023-11-20T11:22:40.262Z,71.02
2023-11-20T11:23:40.236Z,70.79
2023-11-20T11:24:40.225Z,70.28
2023-11-20T11:25:40.215Z,71.30
2023-11-20T11:26:40.201Z,70.28
2023-11-20T11:27:40.231Z,70.72
2023-11-20T11:28:40.183Z,69.60
2023-11-20T11:29:40.179Z,68.62
2023-11-20T11:30:40.171Z,70.14
2023-11-20T11:31:40.254Z,71.06
2023-11-20T11:32:40.174Z,70.01
2023-11-20T11:33:40.158Z,70.62
2023-11-20T11:34:40.122Z,70.62
2023-11-20T11:35:40.118Z,70.10
2023-11-20T11:36:40.104Z,68.99
2023-11-20T11:37:40.095Z,68.85
2023-11-20T11:38:40.114Z,68.04
2023-11-20T11:39:40.079Z,68.75
2023-11-20T11:40:40.064Z,68.55
2023-11-20T11:41:40.058Z,67.22
2023-11-20T11:42:40.058Z,67.53
2023-11-20T11:43:40.037Z,68.35
2023-11-20T11:44:40.037Z,66.92
2023-11-20T11:45:40.025Z,67.43
2023-11-20T11:46:40.064Z,68.11
2023-11-20T11:47:40.008Z,68.11
2023-11-20T11:48:40.001Z,67.13
2023-11-20T11:49:40.008Z,67.22
2023-11-20T11:50:39.963Z,66.82
2023-11-20T11:51:39.959Z,68.24
2023-11-20T11:52:39.943Z,67.13
2023-11-20T11:53:39.943Z,67.53
2023-11-20T11:54:39.943Z,69.06
2023-11-20T11:55:39.923Z,68.65
2023-11-20T11:56:39.906Z,68.58
2023-11-20T11:57:39.908Z,67.66
2023-11-20T11:58:39.893Z,68.58
2023-11-20T11:59:39.905Z,69.40
2023-11-20T12:00:39.869Z,69.40
2023-11-20T12:01:39.866Z,68.38
2023-11-20T12:02:39.873Z,69.29
2023-11-20T12:03:39.960Z,68.41
2023-11-20T12:04:39.951Z,69.23
2023-11-20T12:05:39.897Z,69.32
2023-11-20T12:06:39.814Z,69.43
2023-11-20T12:07:39.809Z,69.90
2023-11-20T12:08:39.813Z,68.62
2023-11-20T12:09:39.789Z,69.32
2023-11-20T12:10:39.793Z,69.53
2023-11-20T12:11:39.926Z,68.92
2023-11-20T12:12:39.756Z,69.23
2023-11-20T12:13:39.752Z,69.53
2023-11-20T12:14:39.749Z,68.82
2023-11-20T12:15:39.769Z,69.63
2023-11-20T12:16:39.848Z,69.97
2023-11-20T12:17:39.882Z,70.28
2023-11-20T12:18:39.774Z,70.48
2023-11-20T12:19:39.721Z,70.78
2023-11-20T12:20:39.703Z,71.91
2023-11-20T12:21:39.709Z,72.21
2023-11-20T12:22:39.666Z,71.70
2023-11-20T12:23:39.678Z,71.91
2023-11-20T12:24:39.640Z,71.80
2023-11-20T12:25:39.662Z,72.41
2023-11-20T12:26:39.625Z,72.92
2023-11-20T12:27:39.648Z,73.88
2023-11-20T12:28:39.620Z,73.36
2023-11-20T12:29:39.607Z,71.94
2023-11-20T12:30:39.580Z,72.75
2023-11-20T12:31:39.754Z,72.96
2023-11-20T12:32:39.624Z,72.24
2023-11-20T12:33:39.580Z,71.84
2023-11-20T12:34:39.544Z,71.80
2023-11-20T12:35:39.539Z,70.38
2023-11-20T12:36:39.558Z,69.97
2023-11-20T12:37:39.530Z,68.95
2023-11-20T12:38:39.506Z,68.65
2023-11-20T12:39:39.509Z,68.95
2023-11-20T12:40:39.718Z,70.07
2023-11-20T12:41:39.529Z,71.60
2023-11-20T12:42:39.483Z,72.41
2023-11-20T12:43:39.674Z,72.72
2023-11-20T12:44:39.449Z,73.33
2023-11-20T12:45:39.443Z,71.91
2023-11-20T12:46:39.503Z,71.70
2023-11-20T12:47:39.437Z,72.11
2023-11-20T12:48:39.405Z,70.68
2023-11-20T12:49:39.411Z,70.82
2023-11-20T12:50:39.394Z,72.34
2023-11-20T12:51:39.398Z,72.75
2023-11-20T12:52:39.366Z,73.36